sensor_id;sensor_type;location;lat;lon;timestamp;P1;durP1;ratioP1;P2;durP2;ratioP2
70045;SDS011;57385;41.832;23.494;2022-07-29T00:00:07;10.30;;;6.90;;
70045;SDS011;57385;41.832;23.494;2022-07-29T00:00:27;7.53;;;6.50;;
70045;SDS011;57385;41.832;23.494;2022-07-29T00:00:47;7.00;;;6.40;;
70045;SDS011;57385;41.832;23.494;2022-07-29T00:01:06;7.55;;;6.85;;
70045;SDS011;57385;41.832;23.494;2022-07-29T00:01:26;7.50;;;6.80;;
70045;SDS011;57385;41.832;23.494;2022-07-29T00:01:45;7.33;;;6.53;;
70045;SDS011;57385;41.832;23.494;2022-07-29T00:02:05;7.38;;;6.55;;
70045;SDS011;57385;41.832;23.494;2022-07-29T00:02:25;8.30;;;6.77;;
70045;SDS011;57385;41.832;23.494;2022-07-29T00:02:47;7.65;;;6.70;;
70045;SDS011;57385;41.832;23.494;2022-07-29T00:03:06;9.25;;;7.05;;
70045;SDS011;57385;41.832;23.494;2022-07-29T00:03:25;9.53;;;6.90;;
70045;SDS011;57385;41.832;23.494;2022-07-29T00:03:45;7.60;;;6.90;;
70045;SDS011;57385;41.832;23.494;2022-07-29T00:04:05;7.70;;;7.00;;
70045;SDS011;57385;41.832;23.494;2022-07-29T00:04:24;9.13;;;6.90;;
70045;SDS011;57385;41.832;23.494;2022-07-29T00:04:44;8.13;;;6.97;;
70045;SDS011;57385;41.832;23.494;2022-07-29T00:05:03;9.63;;;7.53;;
70045;SDS011;57385;41.832;23.494;2022-07-29T00:05:24;9.52;;;7.22;;
70045;SDS011;57385;41.832;23.494;2022-07-29T00:05:43;9.43;;;7.20;;
70045;SDS011;57385;41.832;23.494;2022-07-29T00:06:03;8.43;;;6.83;;
70045;SDS011;57385;41.832;23.494;2022-07-29T00:06:22;9.60;;;6.97;;
70045;SDS011;57385;41.832;23.494;2022-07-29T00:06:42;8.67;;;6.73;;
70045;SDS011;57385;41.832;23.494;2022-07-29T00:07:01;7.45;;;6.60;;
70045;SDS011;57385;41.832;23.494;2022-07-29T00:07:22;7.78;;;7.07;;
70045;SDS011;57385;41.832;23.494;2022-07-29T00:07:41;9.10;;;7.33;;
70045;SDS011;57385;41.832;23.494;2022-07-29T00:08:01;9.07;;;7.13;;
70045;SDS011;57385;41.832;23.494;2022-07-29T00:08:20;10.30;;;6.95;;
70045;SDS011;57385;41.832;23.494;2022-07-29T00:08:40;9.70;;;7.07;;
70045;SDS011;57385;41.832;23.494;2022-07-29T00:08:59;8.23;;;7.00;;
70045;SDS011;57385;41.832;23.494;2022-07-29T00:09:18;8.05;;;6.93;;
70045;SDS011;57385;41.832;23.494;2022-07-29T00:09:38;7.80;;;7.10;;
70045;SDS011;57385;41.832;23.494;2022-07-29T00:09:57;8.17;;;7.20;;
70045;SDS011;57385;41.832;23.494;2022-07-29T00:10:17;8.20;;;6.88;;
70045;SDS011;57385;41.832;23.494;2022-07-29T00:10:36;7.60;;;6.90;;
70045;SDS011;57385;41.832;23.494;2022-07-29T00:10:56;7.82;;;7.03;;
70045;SDS011;57385;41.832;23.494;2022-07-29T00:11:15;7.70;;;7.00;;
70045;SDS011;57385;41.832;23.494;2022-07-29T00:11:34;7.50;;;6.80;;
70045;SDS011;57385;41.832;23.494;2022-07-29T00:11:54;7.30;;;6.60;;
70045;SDS011;57385;41.832;23.494;2022-07-29T00:12:17;7.90;;;7.10;;
70045;SDS011;57385;41.832;23.494;2022-07-29T00:12:38;8.05;;;7.28;;
70045;SDS011;57385;41.832;23.494;2022-07-29T00:12:57;7.87;;;7.07;;
70045;SDS011;57385;41.832;23.494;2022-07-29T00:13:17;7.90;;;7.10;;
70045;SDS011;57385;41.832;23.494;2022-07-29T00:13:36;8.40;;;7.27;;
70045;SDS011;57385;41.832;23.494;2022-07-29T00:13:56;8.05;;;6.75;;
70045;SDS011;57385;41.832;23.494;2022-07-29T00:14:15;7.70;;;7.00;;
70045;SDS011;57385;41.832;23.494;2022-07-29T00:14:35;7.75;;;7.05;;
70045;SDS011;57385;41.832;23.494;2022-07-29T00:14:54;7.50;;;6.70;;
70045;SDS011;57385;41.832;23.494;2022-07-29T00:15:15;7.47;;;6.78;;
70045;SDS011;57385;41.832;23.494;2022-07-29T00:15:34;7.43;;;6.60;;
70045;SDS011;57385;41.832;23.494;2022-07-29T00:15:53;8.48;;;6.97;;
70045;SDS011;57385;41.832;23.494;2022-07-29T00:16:13;7.90;;;7.10;;
70045;SDS011;57385;41.832;23.494;2022-07-29T00:16:32;8.43;;;7.03;;
70045;SDS011;57385;41.832;23.494;2022-07-29T00:16:52;7.83;;;7.03;;
70045;SDS011;57385;41.832;23.494;2022-07-29T00:17:11;7.82;;;7.03;;
70045;SDS011;57385;41.832;23.494;2022-07-29T00:17:50;8.98;;;7.20;;
70045;SDS011;57385;41.832;23.494;2022-07-29T00:18:09;8.32;;;7.07;;
70045;SDS011;57385;41.832;23.494;2022-07-29T00:18:28;7.57;;;6.80;;
70045;SDS011;57385;41.832;23.494;2022-07-29T00:18:48;7.60;;;6.80;;
70045;SDS011;57385;41.832;23.494;2022-07-29T00:19:07;7.80;;;7.00;;
70045;SDS011;57385;41.832;23.494;2022-07-29T00:19:27;9.45;;;7.20;;
70045;SDS011;57385;41.832;23.494;2022-07-29T00:19:46;8.10;;;6.93;;
70045;SDS011;57385;41.832;23.494;2022-07-29T00:20:06;7.50;;;6.75;;
70045;SDS011;57385;41.832;23.494;2022-07-29T00:20:26;7.78;;;6.97;;
70045;SDS011;57385;41.832;23.494;2022-07-29T00:20:46;8.60;;;7.20;;
70045;SDS011;57385;41.832;23.494;2022-07-29T00:21:05;9.87;;;6.77;;
70045;SDS011;57385;41.832;23.494;2022-07-29T00:21:25;8.52;;;6.90;;
70045;SDS011;57385;41.832;23.494;2022-07-29T00:21:44;7.97;;;7.17;;
70045;SDS011;57385;41.832;23.494;2022-07-29T00:22:04;8.27;;;7.32;;
70045;SDS011;57385;41.832;23.494;2022-07-29T00:22:23;8.10;;;7.27;;
70045;SDS011;57385;41.832;23.494;2022-07-29T00:22:42;8.38;;;7.57;;
70045;SDS011;57385;41.832;23.494;2022-07-29T00:23:02;8.53;;;7.53;;
70045;SDS011;57385;41.832;23.494;2022-07-29T00:23:22;8.77;;;7.68;;
70045;SDS011;57385;41.832;23.494;2022-07-29T00:23:41;9.23;;;7.33;;
70045;SDS011;57385;41.832;23.494;2022-07-29T00:24:01;9.87;;;7.53;;
70045;SDS011;57385;41.832;23.494;2022-07-29T00:24:20;8.13;;;7.33;;
70045;SDS011;57385;41.832;23.494;2022-07-29T00:24:40;7.80;;;7.00;;
70045;SDS011;57385;41.832;23.494;2022-07-29T00:24:59;7.80;;;6.93;;
70045;SDS011;57385;41.832;23.494;2022-07-29T00:25:19;9.02;;;7.15;;
70045;SDS011;57385;41.832;23.494;2022-07-29T00:25:38;7.50;;;6.70;;
70045;SDS011;57385;41.832;23.494;2022-07-29T00:25:58;7.75;;;7.05;;
70045;SDS011;57385;41.832;23.494;2022-07-29T00:26:17;8.60;;;7.20;;
70045;SDS011;57385;41.832;23.494;2022-07-29T00:26:37;7.90;;;7.15;;
70045;SDS011;57385;41.832;23.494;2022-07-29T00:26:56;7.67;;;6.97;;
70045;SDS011;57385;41.832;23.494;2022-07-29T00:27:16;8.05;;;7.32;;
70045;SDS011;57385;41.832;23.494;2022-07-29T00:27:36;8.20;;;7.40;;
70045;SDS011;57385;41.832;23.494;2022-07-29T00:27:55;8.63;;;7.00;;
70045;SDS011;57385;41.832;23.494;2022-07-29T00:28:15;9.20;;;7.30;;
70045;SDS011;57385;41.832;23.494;2022-07-29T00:28:34;8.70;;;7.50;;
70045;SDS011;57385;41.832;23.494;2022-07-29T00:28:54;8.57;;;7.13;;
70045;SDS011;57385;41.832;23.494;2022-07-29T00:29:13;9.53;;;6.80;;
70045;SDS011;57385;41.832;23.494;2022-07-29T00:29:33;8.37;;;7.37;;
70045;SDS011;57385;41.832;23.494;2022-07-29T00:29:52;7.97;;;7.18;;
70045;SDS011;57385;41.832;23.494;2022-07-29T00:30:12;7.67;;;6.87;;
70045;SDS011;57385;41.832;23.494;2022-07-29T00:30:31;7.63;;;6.57;;
70045;SDS011;57385;41.832;23.494;2022-07-29T00:30:51;9.23;;;6.88;;
70045;SDS011;57385;41.832;23.494;2022-07-29T00:31:10;9.10;;;7.23;;
70045;SDS011;57385;41.832;23.494;2022-07-29T00:31:30;8.90;;;7.55;;
70045;SDS011;57385;41.832;23.494;2022-07-29T00:31:49;9.50;;;7.47;;
70045;SDS011;57385;41.832;23.494;2022-07-29T00:32:09;8.57;;;7.47;;
70045;SDS011;57385;41.832;23.494;2022-07-29T00:32:28;8.95;;;8.05;;
70045;SDS011;57385;41.832;23.494;2022-07-29T00:32:48;9.50;;;7.63;;
70045;SDS011;57385;41.832;23.494;2022-07-29T00:33:07;8.45;;;7.57;;
70045;SDS011;57385;41.832;23.494;2022-07-29T00:33:27;8.70;;;7.73;;
70045;SDS011;57385;41.832;23.494;2022-07-29T00:33:47;11.27;;;7.85;;
70045;SDS011;57385;41.832;23.494;2022-07-29T00:34:07;9.80;;;7.57;;
70045;SDS011;57385;41.832;23.494;2022-07-29T00:34:26;10.23;;;7.60;;
70045;SDS011;57385;41.832;23.494;2022-07-29T00:34:46;9.33;;;7.50;;
70045;SDS011;57385;41.832;23.494;2022-07-29T00:35:05;9.18;;;7.90;;
70045;SDS011;57385;41.832;23.494;2022-07-29T00:35:25;8.95;;;7.63;;
70045;SDS011;57385;41.832;23.494;2022-07-29T00:35:45;8.85;;;7.72;;
70045;SDS011;57385;41.832;23.494;2022-07-29T00:36:04;10.30;;;7.83;;
70045;SDS011;57385;41.832;23.494;2022-07-29T00:36:24;10.35;;;8.07;;
70045;SDS011;57385;41.832;23.494;2022-07-29T00:36:43;8.80;;;7.33;;
70045;SDS011;57385;41.832;23.494;2022-07-29T00:37:03;9.55;;;7.50;;
70045;SDS011;57385;41.832;23.494;2022-07-29T00:37:22;10.57;;;7.67;;
70045;SDS011;57385;41.832;23.494;2022-07-29T00:37:41;10.85;;;7.82;;
70045;SDS011;57385;41.832;23.494;2022-07-29T00:38:01;9.10;;;7.80;;
70045;SDS011;57385;41.832;23.494;2022-07-29T00:38:20;10.45;;;8.07;;
70045;SDS011;57385;41.832;23.494;2022-07-29T00:38:40;9.77;;;8.13;;
70045;SDS011;57385;41.832;23.494;2022-07-29T00:38:59;8.55;;;7.68;;
70045;SDS011;57385;41.832;23.494;2022-07-29T00:39:19;8.43;;;7.53;;
70045;SDS011;57385;41.832;23.494;2022-07-29T00:39:38;8.52;;;7.63;;
70045;SDS011;57385;41.832;23.494;2022-07-29T00:39:57;10.10;;;7.87;;
70045;SDS011;57385;41.832;23.494;2022-07-29T00:40:17;10.88;;;8.10;;
70045;SDS011;57385;41.832;23.494;2022-07-29T00:40:36;10.33;;;7.93;;
70045;SDS011;57385;41.832;23.494;2022-07-29T00:40:56;9.65;;;8.05;;
70045;SDS011;57385;41.832;23.494;2022-07-29T00:41:16;8.90;;;7.97;;
70045;SDS011;57385;41.832;23.494;2022-07-29T00:41:35;8.27;;;7.35;;
70045;SDS011;57385;41.832;23.494;2022-07-29T00:41:55;8.30;;;7.40;;
70045;SDS011;57385;41.832;23.494;2022-07-29T00:42:14;9.88;;;7.65;;
70045;SDS011;57385;41.832;23.494;2022-07-29T00:43:07;12.48;;;8.10;;
70045;SDS011;57385;41.832;23.494;2022-07-29T00:43:26;11.20;;;8.32;;
70045;SDS011;57385;41.832;23.494;2022-07-29T00:43:46;10.33;;;8.63;;
70045;SDS011;57385;41.832;23.494;2022-07-29T00:44:05;10.20;;;8.30;;
70045;SDS011;57385;41.832;23.494;2022-07-29T00:44:25;10.60;;;8.07;;
70045;SDS011;57385;41.832;23.494;2022-07-29T00:44:44;11.10;;;7.95;;
70045;SDS011;57385;41.832;23.494;2022-07-29T00:45:04;11.60;;;7.83;;
70045;SDS011;57385;41.832;23.494;2022-07-29T00:45:24;13.05;;;7.97;;
70045;SDS011;57385;41.832;23.494;2022-07-29T00:45:43;11.30;;;8.15;;
70045;SDS011;57385;41.832;23.494;2022-07-29T00:46:03;10.73;;;8.87;;
70045;SDS011;57385;41.832;23.494;2022-07-29T00:46:22;13.67;;;8.60;;
70045;SDS011;57385;41.832;23.494;2022-07-29T00:46:42;13.80;;;8.32;;
70045;SDS011;57385;41.832;23.494;2022-07-29T00:47:01;11.30;;;8.30;;
70045;SDS011;57385;41.832;23.494;2022-07-29T00:47:20;11.47;;;8.23;;
70045;SDS011;57385;41.832;23.494;2022-07-29T00:47:40;10.97;;;8.27;;
70045;SDS011;57385;41.832;23.494;2022-07-29T00:48:00;11.77;;;8.32;;
70045;SDS011;57385;41.832;23.494;2022-07-29T00:48:21;12.70;;;8.30;;
70045;SDS011;57385;41.832;23.494;2022-07-29T00:48:40;11.27;;;8.10;;
70045;SDS011;57385;41.832;23.494;2022-07-29T00:48:59;11.75;;;8.07;;
70045;SDS011;57385;41.832;23.494;2022-07-29T00:49:19;11.47;;;8.50;;
70045;SDS011;57385;41.832;23.494;2022-07-29T00:49:39;10.98;;;8.15;;
70045;SDS011;57385;41.832;23.494;2022-07-29T00:50:00;10.35;;;7.90;;
70045;SDS011;57385;41.832;23.494;2022-07-29T00:50:19;11.82;;;8.07;;
70045;SDS011;57385;41.832;23.494;2022-07-29T00:50:39;11.83;;;7.83;;
70045;SDS011;57385;41.832;23.494;2022-07-29T00:50:59;10.45;;;7.78;;
70045;SDS011;57385;41.832;23.494;2022-07-29T00:51:20;9.85;;;8.10;;
70045;SDS011;57385;41.832;23.494;2022-07-29T00:51:39;9.77;;;8.30;;
70045;SDS011;57385;41.832;23.494;2022-07-29T00:52:03;10.25;;;8.23;;
70045;SDS011;57385;41.832;23.494;2022-07-29T00:52:23;9.00;;;7.80;;
70045;SDS011;57385;41.832;23.494;2022-07-29T00:52:43;8.75;;;7.55;;
70045;SDS011;57385;41.832;23.494;2022-07-29T00:53:03;8.90;;;7.75;;
70045;SDS011;57385;41.832;23.494;2022-07-29T00:53:24;8.57;;;7.75;;
70045;SDS011;57385;41.832;23.494;2022-07-29T00:53:44;9.57;;;8.07;;
70045;SDS011;57385;41.832;23.494;2022-07-29T00:54:04;8.55;;;7.50;;
70045;SDS011;57385;41.832;23.494;2022-07-29T00:54:24;8.88;;;7.80;;
70045;SDS011;57385;41.832;23.494;2022-07-29T00:54:43;9.35;;;8.13;;
70045;SDS011;57385;41.832;23.494;2022-07-29T00:55:04;10.20;;;7.93;;
70045;SDS011;57385;41.832;23.494;2022-07-29T00:55:24;9.27;;;7.95;;
70045;SDS011;57385;41.832;23.494;2022-07-29T00:55:44;9.43;;;7.97;;
70045;SDS011;57385;41.832;23.494;2022-07-29T00:56:04;9.27;;;7.93;;
70045;SDS011;57385;41.832;23.494;2022-07-29T00:56:23;9.18;;;8.10;;
70045;SDS011;57385;41.832;23.494;2022-07-29T00:56:43;11.23;;;8.27;;
70045;SDS011;57385;41.832;23.494;2022-07-29T00:57:03;11.23;;;8.03;;
70045;SDS011;57385;41.832;23.494;2022-07-29T00:57:22;9.27;;;8.30;;
70045;SDS011;57385;41.832;23.494;2022-07-29T00:57:42;9.40;;;8.50;;
70045;SDS011;57385;41.832;23.494;2022-07-29T00:58:03;9.10;;;8.20;;
70045;SDS011;57385;41.832;23.494;2022-07-29T00:58:23;9.10;;;8.03;;
70045;SDS011;57385;41.832;23.494;2022-07-29T00:58:43;9.43;;;8.45;;
70045;SDS011;57385;41.832;23.494;2022-07-29T00:59:04;9.40;;;8.40;;
70045;SDS011;57385;41.832;23.494;2022-07-29T00:59:24;9.07;;;8.17;;
70045;SDS011;57385;41.832;23.494;2022-07-29T00:59:45;9.60;;;8.13;;
70045;SDS011;57385;41.832;23.494;2022-07-29T01:00:05;12.45;;;8.40;;
70045;SDS011;57385;41.832;23.494;2022-07-29T01:00:28;11.00;;;8.85;;
70045;SDS011;57385;41.832;23.494;2022-07-29T01:00:48;9.77;;;8.35;;
70045;SDS011;57385;41.832;23.494;2022-07-29T01:01:07;10.00;;;8.55;;
70045;SDS011;57385;41.832;23.494;2022-07-29T01:01:27;9.70;;;8.20;;
70045;SDS011;57385;41.832;23.494;2022-07-29T01:01:46;9.65;;;7.90;;
70045;SDS011;57385;41.832;23.494;2022-07-29T01:02:05;11.47;;;8.03;;
70045;SDS011;57385;41.832;23.494;2022-07-29T01:02:25;9.68;;;8.40;;
70045;SDS011;57385;41.832;23.494;2022-07-29T01:02:45;9.47;;;8.47;;
70045;SDS011;57385;41.832;23.494;2022-07-29T01:03:05;9.73;;;8.73;;
70045;SDS011;57385;41.832;23.494;2022-07-29T01:03:25;9.75;;;8.80;;
70045;SDS011;57385;41.832;23.494;2022-07-29T01:03:44;10.53;;;8.60;;
70045;SDS011;57385;41.832;23.494;2022-07-29T01:04:05;10.90;;;8.40;;
70045;SDS011;57385;41.832;23.494;2022-07-29T01:04:25;10.57;;;8.38;;
70045;SDS011;57385;41.832;23.494;2022-07-29T01:04:45;12.45;;;8.50;;
70045;SDS011;57385;41.832;23.494;2022-07-29T01:05:05;11.43;;;8.70;;
70045;SDS011;57385;41.832;23.494;2022-07-29T01:05:26;10.48;;;8.70;;
70045;SDS011;57385;41.832;23.494;2022-07-29T01:05:47;14.25;;;9.77;;
70045;SDS011;57385;41.832;23.494;2022-07-29T01:06:06;13.48;;;9.70;;
70045;SDS011;57385;41.832;23.494;2022-07-29T01:06:26;13.20;;;9.67;;
70045;SDS011;57385;41.832;23.494;2022-07-29T01:06:46;14.27;;;10.03;;
70045;SDS011;57385;41.832;23.494;2022-07-29T01:07:07;14.52;;;9.43;;
70045;SDS011;57385;41.832;23.494;2022-07-29T01:07:27;11.83;;;9.17;;
70045;SDS011;57385;41.832;23.494;2022-07-29T01:07:49;12.35;;;8.68;;
70045;SDS011;57385;41.832;23.494;2022-07-29T01:08:12;11.82;;;8.82;;
70045;SDS011;57385;41.832;23.494;2022-07-29T01:08:33;11.52;;;8.93;;
70045;SDS011;57385;41.832;23.494;2022-07-29T01:08:53;10.23;;;8.60;;
70045;SDS011;57385;41.832;23.494;2022-07-29T01:09:13;11.95;;;8.88;;
70045;SDS011;57385;41.832;23.494;2022-07-29T01:09:33;10.98;;;8.43;;
70045;SDS011;57385;41.832;23.494;2022-07-29T01:09:54;9.13;;;8.05;;
70045;SDS011;57385;41.832;23.494;2022-07-29T01:10:15;10.07;;;8.40;;
70045;SDS011;57385;41.832;23.494;2022-07-29T01:10:36;10.98;;;8.57;;
70045;SDS011;57385;41.832;23.494;2022-07-29T01:10:57;10.45;;;8.15;;
70045;SDS011;57385;41.832;23.494;2022-07-29T01:11:17;9.23;;;7.80;;
70045;SDS011;57385;41.832;23.494;2022-07-29T01:11:37;9.98;;;7.60;;
70045;SDS011;57385;41.832;23.494;2022-07-29T01:11:58;10.60;;;7.65;;
70045;SDS011;57385;41.832;23.494;2022-07-29T01:12:21;10.10;;;7.35;;
70045;SDS011;57385;41.832;23.494;2022-07-29T01:12:46;8.90;;;8.00;;
70045;SDS011;57385;41.832;23.494;2022-07-29T01:13:08;9.18;;;7.72;;
70045;SDS011;57385;41.832;23.494;2022-07-29T01:13:29;11.43;;;7.68;;
70045;SDS011;57385;41.832;23.494;2022-07-29T01:13:50;11.95;;;7.45;;
70045;SDS011;57385;41.832;23.494;2022-07-29T01:14:10;9.27;;;7.70;;
70045;SDS011;57385;41.832;23.494;2022-07-29T01:14:30;10.23;;;7.82;;
70045;SDS011;57385;41.832;23.494;2022-07-29T01:14:50;8.65;;;7.40;;
70045;SDS011;57385;41.832;23.494;2022-07-29T01:15:12;9.10;;;7.70;;
70045;SDS011;57385;41.832;23.494;2022-07-29T01:15:32;9.13;;;7.50;;
70045;SDS011;57385;41.832;23.494;2022-07-29T01:15:59;8.55;;;7.22;;
70045;SDS011;57385;41.832;23.494;2022-07-29T01:16:32;8.38;;;7.18;;
70045;SDS011;57385;41.832;23.494;2022-07-29T01:17:08;9.52;;;7.22;;
70045;SDS011;57385;41.832;23.494;2022-07-29T01:18:18;9.82;;;7.43;;
70045;SDS011;57385;41.832;23.494;2022-07-29T01:18:44;9.25;;;7.53;;
70045;SDS011;57385;41.832;23.494;2022-07-29T01:19:07;8.82;;;7.90;;
70045;SDS011;57385;41.832;23.494;2022-07-29T01:19:56;8.82;;;7.80;;
70045;SDS011;57385;41.832;23.494;2022-07-29T01:20:25;10.48;;;8.02;;
70045;SDS011;57385;41.832;23.494;2022-07-29T01:21:53;10.98;;;7.93;;
70045;SDS011;57385;41.832;23.494;2022-07-29T01:29:21;10.50;;;8.77;;
70045;SDS011;57385;41.832;23.494;2022-07-29T01:29:44;10.27;;;8.65;;
70045;SDS011;57385;41.832;23.494;2022-07-29T01:30:07;10.15;;;8.50;;
70045;SDS011;57385;41.832;23.494;2022-07-29T01:30:27;10.32;;;8.43;;
70045;SDS011;57385;41.832;23.494;2022-07-29T01:30:49;11.60;;;8.80;;
70045;SDS011;57385;41.832;23.494;2022-07-29T01:31:10;10.35;;;8.40;;
70045;SDS011;57385;41.832;23.494;2022-07-29T01:32:18;10.02;;;8.55;;
70045;SDS011;57385;41.832;23.494;2022-07-29T01:32:41;9.93;;;8.45;;
70045;SDS011;57385;41.832;23.494;2022-07-29T01:33:06;9.93;;;8.10;;
70045;SDS011;57385;41.832;23.494;2022-07-29T01:33:28;9.82;;;8.48;;
70045;SDS011;57385;41.832;23.494;2022-07-29T01:33:55;9.82;;;8.32;;
70045;SDS011;57385;41.832;23.494;2022-07-29T01:34:20;10.15;;;8.43;;
70045;SDS011;57385;41.832;23.494;2022-07-29T01:34:50;10.88;;;8.25;;
70045;SDS011;57385;41.832;23.494;2022-07-29T01:35:35;10.52;;;8.60;;
70045;SDS011;57385;41.832;23.494;2022-07-29T01:35:57;9.95;;;8.48;;
70045;SDS011;57385;41.832;23.494;2022-07-29T01:36:25;12.68;;;8.63;;
70045;SDS011;57385;41.832;23.494;2022-07-29T01:36:51;11.38;;;8.57;;
70045;SDS011;57385;41.832;23.494;2022-07-29T01:38:20;10.65;;;8.38;;
70045;SDS011;57385;41.832;23.494;2022-07-29T01:38:42;9.63;;;8.52;;
70045;SDS011;57385;41.832;23.494;2022-07-29T01:39:10;10.32;;;8.18;;
70045;SDS011;57385;41.832;23.494;2022-07-29T01:39:33;10.20;;;8.68;;
70045;SDS011;57385;41.832;23.494;2022-07-29T01:39:56;10.02;;;8.50;;
70045;SDS011;57385;41.832;23.494;2022-07-29T01:40:47;10.05;;;8.95;;
70045;SDS011;57385;41.832;23.494;2022-07-29T01:41:11;10.27;;;9.18;;
70045;SDS011;57385;41.832;23.494;2022-07-29T01:41:34;11.98;;;9.50;;
70045;SDS011;57385;41.832;23.494;2022-07-29T01:42:30;11.82;;;9.25;;
70045;SDS011;57385;41.832;23.494;2022-07-29T01:42:55;13.13;;;10.23;;
70045;SDS011;57385;41.832;23.494;2022-07-29T01:43:18;12.85;;;10.93;;
70045;SDS011;57385;41.832;23.494;2022-07-29T01:43:53;13.15;;;11.10;;
70045;SDS011;57385;41.832;23.494;2022-07-29T01:44:18;13.10;;;11.80;;
70045;SDS011;57385;41.832;23.494;2022-07-29T01:44:45;13.05;;;11.13;;
70045;SDS011;57385;41.832;23.494;2022-07-29T01:45:17;13.57;;;11.48;;
70045;SDS011;57385;41.832;23.494;2022-07-29T01:45:42;12.98;;;10.52;;
70045;SDS011;57385;41.832;23.494;2022-07-29T01:46:06;11.27;;;10.13;;
70045;SDS011;57385;41.832;23.494;2022-07-29T01:46:31;14.05;;;10.88;;
70045;SDS011;57385;41.832;23.494;2022-07-29T01:46:54;12.18;;;10.88;;
70045;SDS011;57385;41.832;23.494;2022-07-29T01:47:19;13.90;;;10.60;;
70045;SDS011;57385;41.832;23.494;2022-07-29T01:47:43;14.35;;;10.90;;
70045;SDS011;57385;41.832;23.494;2022-07-29T01:49:14;13.30;;;10.52;;
70045;SDS011;57385;41.832;23.494;2022-07-29T01:49:38;10.90;;;9.80;;
70045;SDS011;57385;41.832;23.494;2022-07-29T01:50:06;10.65;;;9.65;;
70045;SDS011;57385;41.832;23.494;2022-07-29T01:50:31;11.70;;;10.00;;
70045;SDS011;57385;41.832;23.494;2022-07-29T01:51:51;12.88;;;10.20;;
70045;SDS011;57385;41.832;23.494;2022-07-29T01:52:27;12.15;;;9.82;;
70045;SDS011;57385;41.832;23.494;2022-07-29T01:52:56;11.80;;;9.45;;
70045;SDS011;57385;41.832;23.494;2022-07-29T01:53:29;11.57;;;9.50;;
70045;SDS011;57385;41.832;23.494;2022-07-29T01:54:01;10.93;;;9.82;;
70045;SDS011;57385;41.832;23.494;2022-07-29T01:54:43;11.57;;;9.98;;
70045;SDS011;57385;41.832;23.494;2022-07-29T01:55:10;10.82;;;9.68;;
70045;SDS011;57385;41.832;23.494;2022-07-29T01:55:38;10.57;;;9.45;;
70045;SDS011;57385;41.832;23.494;2022-07-29T01:56:01;13.10;;;10.43;;
70045;SDS011;57385;41.832;23.494;2022-07-29T01:56:22;11.10;;;10.00;;
70045;SDS011;57385;41.832;23.494;2022-07-29T01:56:43;11.93;;;10.60;;
70045;SDS011;57385;41.832;23.494;2022-07-29T01:57:07;11.85;;;10.63;;
70045;SDS011;57385;41.832;23.494;2022-07-29T01:57:29;14.27;;;10.23;;
70045;SDS011;57385;41.832;23.494;2022-07-29T01:57:52;13.68;;;9.90;;
70045;SDS011;57385;41.832;23.494;2022-07-29T01:58:15;11.63;;;10.30;;
70045;SDS011;57385;41.832;23.494;2022-07-29T01:58:39;12.98;;;10.27;;
70045;SDS011;57385;41.832;23.494;2022-07-29T01:59:03;11.50;;;10.02;;
70045;SDS011;57385;41.832;23.494;2022-07-29T01:59:25;11.30;;;10.02;;
70045;SDS011;57385;41.832;23.494;2022-07-29T01:59:46;11.75;;;10.48;;
70045;SDS011;57385;41.832;23.494;2022-07-29T02:00:08;16.73;;;11.52;;
70045;SDS011;57385;41.832;23.494;2022-07-29T02:00:31;11.40;;;10.20;;
70045;SDS011;57385;41.832;23.494;2022-07-29T02:00:53;11.43;;;10.32;;
70045;SDS011;57385;41.832;23.494;2022-07-29T02:01:15;10.90;;;9.40;;
70045;SDS011;57385;41.832;23.494;2022-07-29T02:01:37;10.73;;;9.15;;
70045;SDS011;57385;41.832;23.494;2022-07-29T02:02:00;10.80;;;9.10;;
70045;SDS011;57385;41.832;23.494;2022-07-29T02:02:21;10.55;;;9.55;;
70045;SDS011;57385;41.832;23.494;2022-07-29T02:02:42;9.98;;;8.98;;
70045;SDS011;57385;41.832;23.494;2022-07-29T02:03:09;11.50;;;8.77;;
70045;SDS011;57385;41.832;23.494;2022-07-29T02:03:30;10.48;;;9.40;;
70045;SDS011;57385;41.832;23.494;2022-07-29T02:03:52;10.77;;;8.80;;
70045;SDS011;57385;41.832;23.494;2022-07-29T02:04:14;10.82;;;9.27;;
70045;SDS011;57385;41.832;23.494;2022-07-29T02:04:35;10.15;;;9.15;;
70045;SDS011;57385;41.832;23.494;2022-07-29T02:04:56;9.63;;;8.65;;
70045;SDS011;57385;41.832;23.494;2022-07-29T02:05:17;9.45;;;8.50;;
70045;SDS011;57385;41.832;23.494;2022-07-29T02:05:40;10.40;;;8.95;;
70045;SDS011;57385;41.832;23.494;2022-07-29T02:06:01;9.48;;;8.40;;
70045;SDS011;57385;41.832;23.494;2022-07-29T02:06:23;10.43;;;8.70;;
70045;SDS011;57385;41.832;23.494;2022-07-29T02:06:44;10.20;;;9.20;;
70045;SDS011;57385;41.832;23.494;2022-07-29T02:07:09;10.32;;;9.20;;
70045;SDS011;57385;41.832;23.494;2022-07-29T02:07:32;9.75;;;8.57;;
70045;SDS011;57385;41.832;23.494;2022-07-29T02:07:53;10.02;;;8.77;;
70045;SDS011;57385;41.832;23.494;2022-07-29T02:08:14;11.35;;;8.80;;
70045;SDS011;57385;41.832;23.494;2022-07-29T02:08:36;12.73;;;9.10;;
70045;SDS011;57385;41.832;23.494;2022-07-29T02:08:58;11.93;;;8.85;;
70045;SDS011;57385;41.832;23.494;2022-07-29T02:09:19;12.65;;;9.30;;
70045;SDS011;57385;41.832;23.494;2022-07-29T02:09:40;13.02;;;9.32;;
70045;SDS011;57385;41.832;23.494;2022-07-29T02:10:02;12.48;;;9.45;;
70045;SDS011;57385;41.832;23.494;2022-07-29T02:10:24;11.10;;;9.30;;
70045;SDS011;57385;41.832;23.494;2022-07-29T02:10:46;12.25;;;9.15;;
70045;SDS011;57385;41.832;23.494;2022-07-29T02:11:07;10.52;;;8.68;;
70045;SDS011;57385;41.832;23.494;2022-07-29T02:11:27;13.98;;;9.35;;
70045;SDS011;57385;41.832;23.494;2022-07-29T02:11:51;14.82;;;9.25;;
70045;SDS011;57385;41.832;23.494;2022-07-29T02:12:13;15.20;;;9.35;;
70045;SDS011;57385;41.832;23.494;2022-07-29T02:12:35;11.73;;;8.82;;
70045;SDS011;57385;41.832;23.494;2022-07-29T02:12:57;10.82;;;9.15;;
70045;SDS011;57385;41.832;23.494;2022-07-29T02:13:18;11.75;;;9.18;;
70045;SDS011;57385;41.832;23.494;2022-07-29T02:13:41;11.78;;;9.42;;
70045;SDS011;57385;41.832;23.494;2022-07-29T02:14:02;11.32;;;9.55;;
70045;SDS011;57385;41.832;23.494;2022-07-29T02:14:24;13.60;;;9.10;;
70045;SDS011;57385;41.832;23.494;2022-07-29T02:14:49;13.85;;;9.10;;
70045;SDS011;57385;41.832;23.494;2022-07-29T02:15:11;12.30;;;9.48;;
70045;SDS011;57385;41.832;23.494;2022-07-29T02:15:31;12.32;;;9.02;;
70045;SDS011;57385;41.832;23.494;2022-07-29T02:15:52;13.07;;;9.20;;
70045;SDS011;57385;41.832;23.494;2022-07-29T02:16:14;14.32;;;8.85;;
70045;SDS011;57385;41.832;23.494;2022-07-29T02:16:36;13.68;;;8.82;;
70045;SDS011;57385;41.832;23.494;2022-07-29T02:17:00;11.82;;;8.70;;
70045;SDS011;57385;41.832;23.494;2022-07-29T02:17:24;12.00;;;8.77;;
70045;SDS011;57385;41.832;23.494;2022-07-29T02:17:51;11.77;;;9.02;;
70045;SDS011;57385;41.832;23.494;2022-07-29T02:18:23;12.45;;;9.23;;
70045;SDS011;57385;41.832;23.494;2022-07-29T02:18:47;11.93;;;9.18;;
70045;SDS011;57385;41.832;23.494;2022-07-29T02:19:09;13.98;;;9.88;;
70045;SDS011;57385;41.832;23.494;2022-07-29T02:19:30;15.15;;;12.25;;
70045;SDS011;57385;41.832;23.494;2022-07-29T02:19:52;21.83;;;16.77;;
70045;SDS011;57385;41.832;23.494;2022-07-29T02:20:18;26.90;;;20.58;;
70045;SDS011;57385;41.832;23.494;2022-07-29T02:20:38;27.75;;;21.45;;
70045;SDS011;57385;41.832;23.494;2022-07-29T02:21:00;27.92;;;21.73;;